sensor_id;sensor_type;location;lat;lon;timestamp;pressure;altitude;pressure_sealevel;temperature;humidity
73220;BME280;61434;43.538;-5.688;2022-08-27T00:00:19;101482.84;;;21.44;76.42
73220;BME280;61434;43.538;-5.688;2022-08-27T00:02:45;101480.78;;;21.46;75.96
73220;BME280;61434;43.538;-5.688;2022-08-27T00:05:11;101477.41;;;21.36;75.99
73220;BME280;61434;43.538;-5.688;2022-08-27T00:07:37;101474.38;;;21.31;75.97
73220;BME280;61434;43.538;-5.688;2022-08-27T00:10:03;101478.41;;;21.43;75.69
73220;BME280;61434;43.538;-5.688;2022-08-27T00:12:28;101465.31;;;21.31;75.77
73220;BME280;61434;43.538;-5.688;2022-08-27T00:14:54;101470.66;;;21.47;75.63
73220;BME280;61434;43.538;-5.688;2022-08-27T00:17:19;101475.97;;;21.48;75.16
73220;BME280;61434;43.538;-5.688;2022-08-27T00:19:45;101472.13;;;21.58;74.71
73220;BME280;61434;43.538;-5.688;2022-08-27T00:22:11;101468.03;;;21.54;74.61
73220;BME280;61434;43.538;-5.688;2022-08-27T00:24:36;101472.41;;;21.63;74.34
73220;BME280;61434;43.538;-5.688;2022-08-27T00:27:02;101474.66;;;21.59;74.80
73220;BME280;61434;43.538;-5.688;2022-08-27T00:29:31;101475.47;;;21.45;74.87
73220;BME280;61434;43.538;-5.688;2022-08-27T00:31:56;101472.63;;;21.30;75.44
73220;BME280;61434;43.538;-5.688;2022-08-27T00:34:23;101482.53;;;21.39;75.35
73220;BME280;61434;43.538;-5.688;2022-08-27T00:36:49;101477.00;;;21.47;75.02
73220;BME280;61434;43.538;-5.688;2022-08-27T00:39:14;101468.41;;;21.27;75.79
73220;BME280;61434;43.538;-5.688;2022-08-27T00:41:40;101466.44;;;21.36;75.65
73220;BME280;61434;43.538;-5.688;2022-08-27T00:44:07;101467.00;;;21.32;75.37
73220;BME280;61434;43.538;-5.688;2022-08-27T00:46:34;101461.28;;;21.41;75.21
73220;BME280;61434;43.538;-5.688;2022-08-27T00:52:09;101467.09;;;21.46;75.28
73220;BME280;61434;43.538;-5.688;2022-08-27T00:54:37;101462.44;;;21.47;75.29
73220;BME280;61434;43.538;-5.688;2022-08-27T00:57:03;101464.63;;;21.51;74.99
73220;BME280;61434;43.538;-5.688;2022-08-27T00:59:29;101458.91;;;21.38;75.40
73220;BME280;61434;43.538;-5.688;2022-08-27T01:01:57;101460.00;;;21.52;75.02
73220;BME280;61434;43.538;-5.688;2022-08-27T01:04:41;101451.13;;;21.65;74.65
73220;BME280;61434;43.538;-5.688;2022-08-27T01:07:07;101455.38;;;21.52;74.27
73220;BME280;61434;43.538;-5.688;2022-08-27T01:09:33;101454.09;;;21.40;74.67
73220;BME280;61434;43.538;-5.688;2022-08-27T01:11:59;101449.03;;;21.29;75.00
73220;BME280;61434;43.538;-5.688;2022-08-27T01:14:24;101435.03;;;21.24;75.25
73220;BME280;61434;43.538;-5.688;2022-08-27T01:16:52;101439.50;;;21.17;75.38
73220;BME280;61434;43.538;-5.688;2022-08-27T01:21:57;101419.94;;;21.28;74.85
73220;BME280;61434;43.538;-5.688;2022-08-27T01:26:51;101415.72;;;21.17;75.52
73220;BME280;61434;43.538;-5.688;2022-08-27T01:29:16;101415.81;;;21.32;74.87
73220;BME280;61434;43.538;-5.688;2022-08-27T01:31:42;101417.84;;;21.30;74.79
73220;BME280;61434;43.538;-5.688;2022-08-27T01:34:08;101416.50;;;21.26;74.55
73220;BME280;61434;43.538;-5.688;2022-08-27T01:36:33;101418.47;;;21.40;74.57
73220;BME280;61434;43.538;-5.688;2022-08-27T01:38:58;101408.09;;;21.50;73.92
73220;BME280;61434;43.538;-5.688;2022-08-27T01:41:24;101407.88;;;21.37;73.72
73220;BME280;61434;43.538;-5.688;2022-08-27T01:43:49;101402.69;;;21.19;74.21
73220;BME280;61434;43.538;-5.688;2022-08-27T01:46:19;101403.25;;;21.38;73.96
73220;BME280;61434;43.538;-5.688;2022-08-27T01:48:45;101404.03;;;21.46;73.39
73220;BME280;61434;43.538;-5.688;2022-08-27T01:51:10;101401.94;;;21.48;73.45
73220;BME280;61434;43.538;-5.688;2022-08-27T01:53:36;101404.34;;;21.51;73.41
73220;BME280;61434;43.538;-5.688;2022-08-27T01:56:01;101402.25;;;21.54;73.74
73220;BME280;61434;43.538;-5.688;2022-08-27T01:58:28;101406.03;;;21.52;74.09
73220;BME280;61434;43.538;-5.688;2022-08-27T02:00:55;101394.00;;;21.39;74.19
73220;BME280;61434;43.538;-5.688;2022-08-27T02:03:21;101397.88;;;21.44;74.44
73220;BME280;61434;43.538;-5.688;2022-08-27T02:05:46;101387.38;;;21.33;74.88
73220;BME280;61434;43.538;-5.688;2022-08-27T02:08:13;101378.94;;;21.35;74.51
73220;BME280;61434;43.538;-5.688;2022-08-27T02:10:40;101385.44;;;21.57;74.40
73220;BME280;61434;43.538;-5.688;2022-08-27T02:13:06;101381.28;;;21.61;74.11
73220;BME280;61434;43.538;-5.688;2022-08-27T02:15:32;101377.94;;;21.50;74.55
73220;BME280;61434;43.538;-5.688;2022-08-27T02:17:58;101371.81;;;21.25;75.72
73220;BME280;61434;43.538;-5.688;2022-08-27T02:20:24;101366.31;;;21.48;74.96
73220;BME280;61434;43.538;-5.688;2022-08-27T02:22:49;101363.00;;;21.53;74.93
73220;BME280;61434;43.538;-5.688;2022-08-27T02:25:15;101350.91;;;21.33;74.81
73220;BME280;61434;43.538;-5.688;2022-08-27T02:27:41;101353.44;;;21.34;75.05
73220;BME280;61434;43.538;-5.688;2022-08-27T02:30:08;101354.56;;;21.40;74.33
73220;BME280;61434;43.538;-5.688;2022-08-27T02:32:35;101352.44;;;21.27;74.84
73220;BME280;61434;43.538;-5.688;2022-08-27T02:35:00;101346.09;;;21.26;74.75
73220;BME280;61434;43.538;-5.688;2022-08-27T02:37:27;101333.09;;;21.29;74.47
73220;BME280;61434;43.538;-5.688;2022-08-27T02:39:53;101348.06;;;21.41;74.11
73220;BME280;61434;43.538;-5.688;2022-08-27T02:42:18;101338.56;;;21.29;73.65
73220;BME280;61434;43.538;-5.688;2022-08-27T02:44:43;101329.81;;;21.33;74.02
73220;BME280;61434;43.538;-5.688;2022-08-27T02:47:09;101344.56;;;21.32;73.50
73220;BME280;61434;43.538;-5.688;2022-08-27T02:49:34;101337.84;;;21.35;73.94
73220;BME280;61434;43.538;-5.688;2022-08-27T02:52:00;101340.09;;;21.31;73.75
73220;BME280;61434;43.538;-5.688;2022-08-27T02:54:27;101336.34;;;21.32;74.14
73220;BME280;61434;43.538;-5.688;2022-08-27T02:56:52;101337.53;;;21.30;73.99
73220;BME280;61434;43.538;-5.688;2022-08-27T02:59:19;101338.28;;;21.23;74.10
73220;BME280;61434;43.538;-5.688;2022-08-27T03:01:45;101333.09;;;21.29;73.89
73220;BME280;61434;43.538;-5.688;2022-08-27T03:04:11;101331.44;;;21.42;73.45
73220;BME280;61434;43.538;-5.688;2022-08-27T03:06:36;101330.03;;;21.46;73.18
73220;BME280;61434;43.538;-5.688;2022-08-27T03:09:02;101329.00;;;21.47;73.00
73220;BME280;61434;43.538;-5.688;2022-08-27T03:11:27;101320.19;;;21.37;73.58
73220;BME280;61434;43.538;-5.688;2022-08-27T03:13:53;101318.09;;;21.39;73.27
73220;BME280;61434;43.538;-5.688;2022-08-27T03:16:18;101319.63;;;21.42;73.55
73220;BME280;61434;43.538;-5.688;2022-08-27T03:18:44;101320.78;;;21.24;73.71
73220;BME280;61434;43.538;-5.688;2022-08-27T03:21:14;101323.94;;;21.36;73.40
73220;BME280;61434;43.538;-5.688;2022-08-27T03:23:40;101306.19;;;21.32;73.50
73220;BME280;61434;43.538;-5.688;2022-08-27T03:26:08;101309.97;;;21.31;73.92
73220;BME280;61434;43.538;-5.688;2022-08-27T03:28:34;101308.66;;;21.42;74.21
73220;BME280;61434;43.538;-5.688;2022-08-27T03:31:02;101311.16;;;21.14;74.37
73220;BME280;61434;43.538;-5.688;2022-08-27T03:33:28;101303.50;;;21.24;74.40
73220;BME280;61434;43.538;-5.688;2022-08-27T03:35:57;101296.81;;;21.41;73.72
73220;BME280;61434;43.538;-5.688;2022-08-27T03:38:22;101299.47;;;21.35;73.55
73220;BME280;61434;43.538;-5.688;2022-08-27T03:40:48;101296.34;;;21.23;74.12
73220;BME280;61434;43.538;-5.688;2022-08-27T03:43:14;101297.34;;;21.22;74.09
73220;BME280;61434;43.538;-5.688;2022-08-27T03:45:43;101298.63;;;21.34;74.02
73220;BME280;61434;43.538;-5.688;2022-08-27T03:48:10;101292.69;;;21.45;74.10
73220;BME280;61434;43.538;-5.688;2022-08-27T03:50:37;101291.06;;;21.36;73.73
73220;BME280;61434;43.538;-5.688;2022-08-27T03:53:02;101284.97;;;21.26;73.94
73220;BME280;61434;43.538;-5.688;2022-08-27T03:55:27;101283.03;;;21.35;73.99
73220;BME280;61434;43.538;-5.688;2022-08-27T03:57:53;101278.97;;;21.45;73.85
73220;BME280;61434;43.538;-5.688;2022-08-27T04:00:18;101281.91;;;21.44;73.65
73220;BME280;61434;43.538;-5.688;2022-08-27T04:02:44;101274.34;;;21.31;73.78
73220;BME280;61434;43.538;-5.688;2022-08-27T04:05:10;101283.09;;;21.26;73.93
73220;BME280;61434;43.538;-5.688;2022-08-27T04:07:36;101282.06;;;21.27;73.83
73220;BME280;61434;43.538;-5.688;2022-08-27T04:10:01;101281.53;;;21.32;73.77
73220;BME280;61434;43.538;-5.688;2022-08-27T04:12:27;101280.22;;;21.05;74.35
73220;BME280;61434;43.538;-5.688;2022-08-27T04:14:52;101274.22;;;21.24;74.09
73220;BME280;61434;43.538;-5.688;2022-08-27T04:17:18;101277.31;;;21.21;73.81
73220;BME280;61434;43.538;-5.688;2022-08-27T04:19:43;101280.63;;;21.17;73.92
73220;BME280;61434;43.538;-5.688;2022-08-27T04:22:09;101278.00;;;21.23;73.92
73220;BME280;61434;43.538;-5.688;2022-08-27T04:24:35;101280.25;;;21.20;74.26
73220;BME280;61434;43.538;-5.688;2022-08-27T04:27:01;101268.81;;;21.16;74.28
73220;BME280;61434;43.538;-5.688;2022-08-27T04:29:26;101268.53;;;21.26;73.97
73220;BME280;61434;43.538;-5.688;2022-08-27T04:31:52;101266.28;;;21.15;74.33
73220;BME280;61434;43.538;-5.688;2022-08-27T04:34:18;101265.44;;;21.29;74.13
73220;BME280;61434;43.538;-5.688;2022-08-27T04:36:43;101261.06;;;21.20;74.32
73220;BME280;61434;43.538;-5.688;2022-08-27T04:39:10;101271.97;;;21.28;73.97
73220;BME280;61434;43.538;-5.688;2022-08-27T04:41:35;101267.22;;;21.22;74.20
73220;BME280;61434;43.538;-5.688;2022-08-27T04:44:02;101260.31;;;21.26;73.84
73220;BME280;61434;43.538;-5.688;2022-08-27T04:46:29;101256.53;;;21.27;73.80
73220;BME280;61434;43.538;-5.688;2022-08-27T04:48:55;101255.88;;;21.25;73.69
73220;BME280;61434;43.538;-5.688;2022-08-27T04:51:21;101253.56;;;21.37;73.43
73220;BME280;61434;43.538;-5.688;2022-08-27T04:53:46;101257.13;;;21.22;73.77
73220;BME280;61434;43.538;-5.688;2022-08-27T04:56:14;101251.84;;;21.36;73.29
73220;BME280;61434;43.538;-5.688;2022-08-27T04:58:41;101255.31;;;21.30;73.23
73220;BME280;61434;43.538;-5.688;2022-08-27T05:01:06;101259.88;;;21.22;73.52
73220;BME280;61434;43.538;-5.688;2022-08-27T05:03:32;101258.81;;;21.23;73.73
73220;BME280;61434;43.538;-5.688;2022-08-27T05:05:58;101254.66;;;21.13;73.93
73220;BME280;61434;43.538;-5.688;2022-08-27T05:08:24;101255.13;;;21.16;73.93
73220;BME280;61434;43.538;-5.688;2022-08-27T05:10:50;101252.22;;;21.18;73.83
73220;BME280;61434;43.538;-5.688;2022-08-27T05:13:16;101250.47;;;21.17;73.85
73220;BME280;61434;43.538;-5.688;2022-08-27T05:15:44;101251.53;;;21.16;73.80
73220;BME280;61434;43.538;-5.688;2022-08-27T05:18:10;101249.34;;;21.11;74.20
73220;BME280;61434;43.538;-5.688;2022-08-27T05:20:41;101242.19;;;21.10;73.81
73220;BME280;61434;43.538;-5.688;2022-08-27T05:23:07;101243.03;;;21.11;73.96
73220;BME280;61434;43.538;-5.688;2022-08-27T05:25:36;101243.59;;;21.06;73.88
73220;BME280;61434;43.538;-5.688;2022-08-27T05:28:01;101241.81;;;21.13;73.91
73220;BME280;61434;43.538;-5.688;2022-08-27T05:30:27;101248.16;;;21.29;73.36
73220;BME280;61434;43.538;-5.688;2022-08-27T05:32:52;101244.91;;;21.25;73.19
73220;BME280;61434;43.538;-5.688;2022-08-27T05:35:18;101251.72;;;21.29;74.11
73220;BME280;61434;43.538;-5.688;2022-08-27T05:37:43;101246.25;;;21.29;73.00
73220;BME280;61434;43.538;-5.688;2022-08-27T05:40:09;101244.91;;;21.25;73.79
73220;BME280;61434;43.538;-5.688;2022-08-27T05:42:34;101252.78;;;21.28;73.36
73220;BME280;61434;43.538;-5.688;2022-08-27T05:44:59;101259.09;;;21.29;73.47
73220;BME280;61434;43.538;-5.688;2022-08-27T05:47:25;101264.75;;;21.27;73.64
73220;BME280;61434;43.538;-5.688;2022-08-27T05:49:51;101257.91;;;21.31;73.34
73220;BME280;61434;43.538;-5.688;2022-08-27T05:52:17;101263.66;;;21.36;73.34
73220;BME280;61434;43.538;-5.688;2022-08-27T05:54:43;101261.16;;;21.26;73.44
73220;BME280;61434;43.538;-5.688;2022-08-27T05:57:09;101266.13;;;21.31;73.88
73220;BME280;61434;43.538;-5.688;2022-08-27T05:59:35;101262.00;;;21.27;73.73
73220;BME280;61434;43.538;-5.688;2022-08-27T06:02:19;101269.53;;;21.33;73.47
73220;BME280;61434;43.538;-5.688;2022-08-27T06:04:44;101267.28;;;21.51;73.30
73220;BME280;61434;43.538;-5.688;2022-08-27T06:07:10;101261.69;;;21.45;73.30
73220;BME280;61434;43.538;-5.688;2022-08-27T06:09:36;101268.19;;;21.59;73.19
73220;BME280;61434;43.538;-5.688;2022-08-27T06:12:01;101266.41;;;21.51;72.89
73220;BME280;61434;43.538;-5.688;2022-08-27T06:14:27;101263.47;;;21.52;73.21
73220;BME280;61434;43.538;-5.688;2022-08-27T06:16:52;101262.63;;;21.67;72.90
73220;BME280;61434;43.538;-5.688;2022-08-27T06:19:18;101251.34;;;21.76;72.50
73220;BME280;61434;43.538;-5.688;2022-08-27T06:21:43;101253.81;;;21.86;71.87
73220;BME280;61434;43.538;-5.688;2022-08-27T06:24:09;101246.75;;;21.62;72.62
73220;BME280;61434;43.538;-5.688;2022-08-27T06:26:37;101254.41;;;21.52;73.33
73220;BME280;61434;43.538;-5.688;2022-08-27T06:29:03;101252.97;;;21.86;72.37
73220;BME280;61434;43.538;-5.688;2022-08-27T06:31:29;101257.03;;;21.60;72.46
73220;BME280;61434;43.538;-5.688;2022-08-27T06:33:57;101252.41;;;21.75;72.37
73220;BME280;61434;43.538;-5.688;2022-08-27T06:36:24;101255.53;;;21.72;72.38
73220;BME280;61434;43.538;-5.688;2022-08-27T06:38:49;101263.78;;;22.09;72.10
73220;BME280;61434;43.538;-5.688;2022-08-27T06:41:16;101263.81;;;22.30;71.21
73220;BME280;61434;43.538;-5.688;2022-08-27T06:43:43;101272.78;;;22.39;70.21
73220;BME280;61434;43.538;-5.688;2022-08-27T06:46:10;101278.34;;;22.45;70.06
73220;BME280;61434;43.538;-5.688;2022-08-27T06:48:36;101282.66;;;22.54;70.21
73220;BME280;61434;43.538;-5.688;2022-08-27T06:51:08;101279.78;;;22.63;69.79
73220;BME280;61434;43.538;-5.688;2022-08-27T06:53:35;101284.63;;;22.82;69.08
73220;BME280;61434;43.538;-5.688;2022-08-27T06:56:01;101287.44;;;22.67;69.06
73220;BME280;61434;43.538;-5.688;2022-08-27T06:58:27;101284.34;;;22.77;69.40
73220;BME280;61434;43.538;-5.688;2022-08-27T07:00:52;101292.22;;;22.59;69.33
73220;BME280;61434;43.538;-5.688;2022-08-27T07:05:43;101289.25;;;22.39;70.49
73220;BME280;61434;43.538;-5.688;2022-08-27T07:08:08;101294.09;;;22.58;69.93
73220;BME280;61434;43.538;-5.688;2022-08-27T07:10:34;101284.69;;;22.46;69.66
73220;BME280;61434;43.538;-5.688;2022-08-27T07:12:59;101278.88;;;22.34;69.98
73220;BME280;61434;43.538;-5.688;2022-08-27T07:15:25;101275.09;;;22.57;69.94
73220;BME280;61434;43.538;-5.688;2022-08-27T07:17:51;101280.03;;;22.68;69.22
73220;BME280;61434;43.538;-5.688;2022-08-27T07:20:17;101277.44;;;22.81;68.52
73220;BME280;61434;43.538;-5.688;2022-08-27T07:22:43;101286.06;;;22.78;69.11
73220;BME280;61434;43.538;-5.688;2022-08-27T07:25:10;101286.06;;;22.78;68.99
73220;BME280;61434;43.538;-5.688;2022-08-27T07:27:37;101280.22;;;22.88;68.55
73220;BME280;61434;43.538;-5.688;2022-08-27T07:30:03;101290.91;;;22.97;68.12
73220;BME280;61434;43.538;-5.688;2022-08-27T07:32:29;101291.03;;;22.89;68.10
73220;BME280;61434;43.538;-5.688;2022-08-27T07:34:54;101293.00;;;22.95;68.19
73220;BME280;61434;43.538;-5.688;2022-08-27T07:37:20;101288.38;;;22.96;68.38
73220;BME280;61434;43.538;-5.688;2022-08-27T07:39:46;101279.19;;;23.10;67.75
73220;BME280;61434;43.538;-5.688;2022-08-27T07:42:11;101287.66;;;23.15;67.32
73220;BME280;61434;43.538;-5.688;2022-08-27T07:44:55;101289.34;;;23.16;67.63
73220;BME280;61434;43.538;-5.688;2022-08-27T07:47:21;101287.31;;;22.97;67.94
73220;BME280;61434;43.538;-5.688;2022-08-27T07:49:46;101283.66;;;23.18;67.94
73220;BME280;61434;43.538;-5.688;2022-08-27T07:52:11;101280.28;;;23.16;67.17
73220;BME280;61434;43.538;-5.688;2022-08-27T07:54:37;101279.28;;;22.52;68.69
73220;BME280;61434;43.538;-5.688;2022-08-27T07:57:02;101290.94;;;22.61;69.05
73220;BME280;61434;43.538;-5.688;2022-08-27T07:59:28;101286.56;;;22.88;68.25
73220;BME280;61434;43.538;-5.688;2022-08-27T08:01:54;101286.38;;;22.90;67.99
73220;BME280;61434;43.538;-5.688;2022-08-27T08:04:20;101288.88;;;23.06;67.74
73220;BME280;61434;43.538;-5.688;2022-08-27T08:06:46;101281.69;;;23.05;67.96
73220;BME280;61434;43.538;-5.688;2022-08-27T08:09:12;101289.13;;;23.46;67.16
73220;BME280;61434;43.538;-5.688;2022-08-27T08:11:38;101276.94;;;23.62;66.44
73220;BME280;61434;43.538;-5.688;2022-08-27T08:14:03;101275.34;;;23.39;66.28
73220;BME280;61434;43.538;-5.688;2022-08-27T08:16:29;101275.91;;;23.28;66.27
73220;BME280;61434;43.538;-5.688;2022-08-27T08:18:54;101281.50;;;23.41;66.80
73220;BME280;61434;43.538;-5.688;2022-08-27T08:21:19;101282.34;;;23.42;65.98
73220;BME280;61434;43.538;-5.688;2022-08-27T08:23:48;101280.78;;;23.33;66.42
73220;BME280;61434;43.538;-5.688;2022-08-27T08:26:14;101278.97;;;23.46;65.86
73220;BME280;61434;43.538;-5.688;2022-08-27T08:28:39;101271.78;;;23.73;65.20
73220;BME280;61434;43.538;-5.688;2022-08-27T08:31:05;101269.22;;;23.72;65.17
73220;BME280;61434;43.538;-5.688;2022-08-27T08:33:31;101279.88;;;23.88;64.81
73220;BME280;61434;43.538;-5.688;2022-08-27T08:36:01;101273.13;;;23.21;66.35
73220;BME280;61434;43.538;-5.688;2022-08-27T08:38:27;101276.59;;;23.09;67.16
73220;BME280;61434;43.538;-5.688;2022-08-27T08:40:52;101283.06;;;23.22;66.35
73220;BME280;61434;43.538;-5.688;2022-08-27T08:43:32;101271.09;;;23.09;67.05
73220;BME280;61434;43.538;-5.688;2022-08-27T08:48:48;101268.47;;;23.22;66.47
73220;BME280;61434;43.538;-5.688;2022-08-27T08:51:24;101271.53;;;23.34;66.55
73220;BME280;61434;43.538;-5.688;2022-08-27T08:54:03;101274.44;;;23.32;66.36
73220;BME280;61434;43.538;-5.688;2022-08-27T08:56:44;101277.06;;;23.12;67.35
73220;BME280;61434;43.538;-5.688;2022-08-27T08:59:13;101278.19;;;23.52;66.22
73220;BME280;61434;43.538;-5.688;2022-08-27T09:01:40;101277.91;;;23.41;65.77
73220;BME280;61434;43.538;-5.688;2022-08-27T09:04:09;101269.75;;;23.61;65.21
73220;BME280;61434;43.538;-5.688;2022-08-27T09:09:07;101274.50;;;23.67;65.01
73220;BME280;61434;43.538;-5.688;2022-08-27T09:11:51;101271.09;;;23.65;65.62
73220;BME280;61434;43.538;-5.688;2022-08-27T09:16:52;101277.91;;;23.47;65.10
73220;BME280;61434;43.538;-5.688;2022-08-27T09:19:17;101264.81;;;23.43;65.32
73220;BME280;61434;43.538;-5.688;2022-08-27T09:21:55;101265.19;;;23.05;66.17
73220;BME280;61434;43.538;-5.688;2022-08-27T09:26:48;101262.81;;;23.02;66.06
73220;BME280;61434;43.538;-5.688;2022-08-27T09:29:14;101252.97;;;22.86;66.91
73220;BME280;61434;43.538;-5.688;2022-08-27T09:31:41;101266.56;;;22.94;66.52
73220;BME280;61434;43.538;-5.688;2022-08-27T09:34:07;101267.72;;;23.07;66.40
73220;BME280;61434;43.538;-5.688;2022-08-27T09:36:32;101273.53;;;22.90;66.40
73220;BME280;61434;43.538;-5.688;2022-08-27T09:38:58;101258.13;;;22.96;66.70
73220;BME280;61434;43.538;-5.688;2022-08-27T09:41:28;101251.44;;;22.84;66.09
73220;BME280;61434;43.538;-5.688;2022-08-27T09:43:59;101253.56;;;22.60;66.67
73220;BME280;61434;43.538;-5.688;2022-08-27T09:46:25;101252.25;;;22.77;66.15
73220;BME280;61434;43.538;-5.688;2022-08-27T09:48:51;101254.78;;;22.79;65.53
73220;BME280;61434;43.538;-5.688;2022-08-27T09:51:21;101264.34;;;22.83;65.44
73220;BME280;61434;43.538;-5.688;2022-08-27T09:59:06;101256.00;;;23.19;65.46
73220;BME280;61434;43.538;-5.688;2022-08-27T10:01:37;101250.13;;;23.29;65.49
73220;BME280;61434;43.538;-5.688;2022-08-27T10:04:13;101256.63;;;23.21;64.66
73220;BME280;61434;43.538;-5.688;2022-08-27T10:06:47;101262.78;;;22.95;65.82
73220;BME280;61434;43.538;-5.688;2022-08-27T10:11:47;101249.59;;;22.63;65.84
73220;BME280;61434;43.538;-5.688;2022-08-27T10:14:22;101257.06;;;22.47;66.56
73220;BME280;61434;43.538;-5.688;2022-08-27T10:22:03;101248.22;;;22.95;65.51
73220;BME280;61434;43.538;-5.688;2022-08-27T10:32:31;101246.22;;;23.17;65.66
73220;BME280;61434;43.538;-5.688;2022-08-27T10:35:05;101238.38;;;23.14;66.46
73220;BME280;61434;43.538;-5.688;2022-08-27T10:37:50;101243.63;;;23.09;65.96
73220;BME280;61434;43.538;-5.688;2022-08-27T10:45:52;101239.19;;;22.58;67.14
73220;BME280;61434;43.538;-5.688;2022-08-27T10:48:33;101242.81;;;22.87;67.65
73220;BME280;61434;43.538;-5.688;2022-08-27T10:55:52;101242.44;;;22.68;67.54
73220;BME280;61434;43.538;-5.688;2022-08-27T11:01:29;101228.84;;;22.82;66.61
73220;BME280;61434;43.538;-5.688;2022-08-27T11:03:55;101229.47;;;22.84;67.38
73220;BME280;61434;43.538;-5.688;2022-08-27T11:06:29;101219.78;;;22.88;67.74
73220;BME280;61434;43.538;-5.688;2022-08-27T11:09:00;101222.81;;;22.93;66.77
73220;BME280;61434;43.538;-5.688;2022-08-27T11:11:44;101241.47;;;22.76;67.32
73220;BME280;61434;43.538;-5.688;2022-08-27T11:14:23;101218.16;;;22.93;66.32
73220;BME280;61434;43.538;-5.688;2022-08-27T11:16:54;101220.19;;;22.85;67.41
73220;BME280;61434;43.538;-5.688;2022-08-27T11:19:22;101217.97;;;22.73;67.88
73220;BME280;61434;43.538;-5.688;2022-08-27T11:26:51;101214.81;;;22.48;68.60
73220;BME280;61434;43.538;-5.688;2022-08-27T11:29:21;101214.47;;;22.58;68.78
73220;BME280;61434;43.538;-5.688;2022-08-27T11:34:29;101218.47;;;22.34;70.60
73220;BME280;61434;43.538;-5.688;2022-08-27T11:37:12;101212.97;;;22.56;69.97
73220;BME280;61434;43.538;-5.688;2022-08-27T11:42:12;101210.88;;;22.58;70.33
73220;BME280;61434;43.538;-5.688;2022-08-27T11:44:44;101215.66;;;22.49;70.70
73220;BME280;61434;43.538;-5.688;2022-08-27T11:47:19;101217.09;;;22.66;70.18
73220;BME280;61434;43.538;-5.688;2022-08-27T11:49:55;101204.47;;;22.72;69.61
73220;BME280;61434;43.538;-5.688;2022-08-27T11:52:25;101208.88;;;22.45;69.91
73220;BME280;61434;43.538;-5.688;2022-08-27T11:55:12;101207.28;;;22.57;70.41
73220;BME280;61434;43.538;-5.688;2022-08-27T11:57:39;101196.69;;;22.54;69.99
73220;BME280;61434;43.538;-5.688;2022-08-27T12:02:39;101202.53;;;22.44;70.52
73220;BME280;61434;43.538;-5.688;2022-08-27T12:05:09;101196.53;;;22.34;70.54
73220;BME280;61434;43.538;-5.688;2022-08-27T12:07:43;101195.84;;;22.53;70.21
73220;BME280;61434;43.538;-5.688;2022-08-27T12:15:20;101200.31;;;22.33;70.53
73220;BME280;61434;43.538;-5.688;2022-08-27T12:22:58;101174.59;;;22.62;70.28
73220;BME280;61434;43.538;-5.688;2022-08-27T12:28:39;101179.06;;;22.70;69.86
73220;BME280;61434;43.538;-5.688;2022-08-27T12:31:05;101173.19;;;22.73;69.91
73220;BME280;61434;43.538;-5.688;2022-08-27T12:33:31;101186.56;;;22.83;69.91
73220;BME280;61434;43.538;-5.688;2022-08-27T12:36:02;101180.16;;;22.75;69.01
73220;BME280;61434;43.538;-5.688;2022-08-27T12:40:59;101175.50;;;22.97;68.65
73220;BME280;61434;43.538;-5.688;2022-08-27T12:43:29;101175.13;;;23.00;68.54
73220;BME280;61434;43.538;-5.688;2022-08-27T12:45:58;101173.47;;;23.13;68.40
73220;BME280;61434;43.538;-5.688;2022-08-27T12:48:30;101170.00;;;22.97;68.60
73220;BME280;61434;43.538;-5.688;2022-08-27T12:50:58;101174.69;;;23.03;68.13
73220;BME280;61434;43.538;-5.688;2022-08-27T12:56:34;101169.19;;;23.03;68.21
73220;BME280;61434;43.538;-5.688;2022-08-27T12:58:48;101166.28;;;23.12;68.10
73220;BME280;61434;43.538;-5.688;2022-08-27T13:03:51;101171.19;;;22.88;68.74
73220;BME280;61434;43.538;-5.688;2022-08-27T13:06:19;101152.56;;;23.12;66.98
73220;BME280;61434;43.538;-5.688;2022-08-27T13:08:45;101160.75;;;22.77;68.24
73220;BME280;61434;43.538;-5.688;2022-08-27T13:13:41;101157.59;;;23.08;67.71
73220;BME280;61434;43.538;-5.688;2022-08-27T13:16:07;101157.13;;;22.98;67.86
73220;BME280;61434;43.538;-5.688;2022-08-27T13:18:32;101147.28;;;23.17;67.30
73220;BME280;61434;43.538;-5.688;2022-08-27T13:23:30;101161.53;;;22.92;68.41
73220;BME280;61434;43.538;-5.688;2022-08-27T13:26:01;101150.78;;;22.97;68.53
73220;BME280;61434;43.538;-5.688;2022-08-27T13:28:27;101147.28;;;23.10;68.12
73220;BME280;61434;43.538;-5.688;2022-08-27T13:30:53;101139.44;;;23.07;67.94
73220;BME280;61434;43.538;-5.688;2022-08-27T13:33:24;101146.00;;;23.13;67.74
73220;BME280;61434;43.538;-5.688;2022-08-27T13:35:52;101143.53;;;23.24;66.93
73220;BME280;61434;43.538;-5.688;2022-08-27T13:38:18;101155.03;;;23.00;67.26
73220;BME280;61434;43.538;-5.688;2022-08-27T13:41:00;101140.84;;;22.96;67.68
73220;BME280;61434;43.538;-5.688;2022-08-27T13:43:31;101129.94;;;23.10;67.48
73220;BME280;61434;43.538;-5.688;2022-08-27T13:45:58;101128.13;;;23.30;66.37
73220;BME280;61434;43.538;-5.688;2022-08-27T13:48:24;101132.88;;;23.08;66.94
73220;BME280;61434;43.538;-5.688;2022-08-27T13:50:52;101123.47;;;22.89;67.45
73220;BME280;61434;43.538;-5.688;2022-08-27T13:53:20;101118.06;;;23.02;67.22
73220;BME280;61434;43.538;-5.688;2022-08-27T13:56:05;101112.03;;;22.86;67.33
73220;BME280;61434;43.538;-5.688;2022-08-27T13:58:32;101120.97;;;22.94;66.89
73220;BME280;61434;43.538;-5.688;2022-08-27T14:03:34;101125.84;;;22.99;66.93
73220;BME280;61434;43.538;-5.688;2022-08-27T14:06:00;101124.69;;;23.15;66.34
73220;BME280;61434;43.538;-5.688;2022-08-27T14:08:31;101124.13;;;22.91;66.95
73220;BME280;61434;43.538;-5.688;2022-08-27T14:10:58;101120.88;;;23.16;66.69
73220;BME280;61434;43.538;-5.688;2022-08-27T14:13:24;101119.66;;;23.25;65.90
73220;BME280;61434;43.538;-5.688;2022-08-27T14:15:53;101119.44;;;23.26;66.06
73220;BME280;61434;43.538;-5.688;2022-08-27T14:20:45;101122.78;;;23.22;66.05